createdAt,value
2023-03-29T00:03:47.193Z,2.92
2023-03-29T00:10:49.038Z,2.65
2023-03-29T00:17:50.780Z,3.22
2023-03-29T00:24:54.007Z,2.88
2023-03-29T00:31:56.043Z,2.75
2023-03-29T00:38:57.691Z,2.95
2023-03-29T00:45:59.328Z,3.28
2023-03-29T00:53:02.767Z,2.88
2023-03-29T01:00:05.268Z,2.35
2023-03-29T01:07:23.484Z,3.22
2023-03-29T01:14:35.162Z,2.63
2023-03-29T01:22:10.572Z,2.90
2023-03-29T01:29:34.066Z,2.80
2023-03-29T01:36:38.507Z,2.28
2023-03-29T01:43:46.409Z,2.40
2023-03-29T01:50:54.174Z,2.63
2023-03-29T01:57:55.940Z,2.58
2023-03-29T02:04:57.646Z,2.55
2023-03-29T02:12:00.284Z,2.67
2023-03-29T02:19:01.801Z,3.72
2023-03-29T02:26:03.823Z,2.95
2023-03-29T02:33:14.078Z,3.45
2023-03-29T02:40:17.489Z,3.40
2023-03-29T02:47:25.532Z,2.40
2023-03-29T02:54:29.757Z,3.40
2023-03-29T03:01:31.354Z,3.08
2023-03-29T03:08:32.927Z,3.60
2023-03-29T03:15:35.843Z,3.45
2023-03-29T03:22:38.045Z,3.13
2023-03-29T03:29:41.322Z,2.88
2023-03-29T03:37:01.566Z,3.20
2023-03-29T03:44:05.669Z,3.70
2023-03-29T03:51:07.522Z,3.20
2023-03-29T03:58:10.230Z,2.90
2023-03-29T04:05:12.099Z,2.90
2023-03-29T04:12:14.997Z,3.15
2023-03-29T04:19:17.500Z,3.78
2023-03-29T04:26:22.857Z,2.38
2023-03-29T04:33:30.971Z,3.33
2023-03-29T04:40:35.124Z,2.40
2023-03-29T04:47:45.636Z,2.17
2023-03-29T04:54:51.678Z,2.58
2023-03-29T05:02:07.223Z,2.38
2023-03-29T05:09:10.496Z,2.75
2023-03-29T05:16:24.434Z,2.25
2023-03-29T05:23:28.759Z,2.92
2023-03-29T05:30:42.633Z,2.95
2023-03-29T05:37:52.035Z,2.63
2023-03-29T05:44:54.646Z,3.17
2023-03-29T05:51:57.036Z,3.17
2023-03-29T05:58:59.575Z,3.28
2023-03-29T06:06:05.142Z,3.25
2023-03-29T06:13:08.186Z,3.63
2023-03-29T06:20:10.774Z,3.00
2023-03-29T06:27:15.455Z,3.60
2023-03-29T06:34:18.405Z,3.45
2023-03-29T06:41:43.173Z,3.28
2023-03-29T06:48:45.051Z,2.58
2023-03-29T06:55:47.271Z,3.40
2023-03-29T07:03:13.180Z,3.10
2023-03-29T07:10:15.029Z,3.70
2023-03-29T07:17:35.093Z,3.40
2023-03-29T07:24:37.633Z,3.20
2023-03-29T07:31:40.960Z,3.13
2023-03-29T07:39:01.839Z,3.58
2023-03-29T07:46:04.807Z,2.63
2023-03-29T07:53:09.004Z,3.65
2023-03-29T08:00:16.167Z,3.03
2023-03-29T08:07:27.849Z,3.80
2023-03-29T08:21:59.015Z,3.60
2023-03-29T08:29:04.037Z,2.75
2023-03-29T08:36:05.954Z,2.90
2023-03-29T08:43:49.174Z,3.40
2023-03-29T08:50:52.768Z,2.25
2023-03-29T08:57:54.595Z,2.42
2023-03-29T09:05:26.738Z,2.80
2023-03-29T09:12:56.228Z,3.10
2023-03-29T09:20:04.979Z,2.83
2023-03-29T09:27:09.976Z,2.80
2023-03-29T09:34:22.784Z,2.73
2023-03-29T09:41:42.591Z,2.97
2023-03-29T09:48:44.550Z,3.05
2023-03-29T09:55:49.723Z,2.67
2023-03-29T10:03:31.292Z,2.70
2023-03-29T10:10:40.313Z,2.90
2023-03-29T10:17:43.357Z,3.17
2023-03-29T10:24:49.664Z,2.95
2023-03-29T10:31:51.357Z,2.90
2023-03-29T10:38:53.049Z,2.90
2023-03-29T10:45:55.976Z,2.53
2023-03-29T10:52:57.645Z,2.70
2023-03-29T10:59:59.232Z,3.05
2023-03-29T11:07:22.749Z,2.88
2023-03-29T11:14:37.198Z,3.20
2023-03-29T11:22:11.710Z,3.20
2023-03-29T11:29:41.549Z,3.08
2023-03-29T11:36:50.310Z,2.92
2023-03-29T11:43:55.071Z,3.28
2023-03-29T11:51:02.740Z,3.20
2023-03-29T11:58:15.651Z,2.90
2023-03-29T12:05:21.407Z,3.10
2023-03-29T12:12:43.702Z,3.05
2023-03-29T12:20:07.995Z,3.45
2023-03-29T12:27:27.971Z,3.13
2023-03-29T12:34:43.057Z,3.20
2023-03-29T12:42:13.657Z,3.90
2023-03-29T12:49:35.824Z,2.83
2023-03-29T12:56:53.067Z,3.20
2023-03-29T13:04:18.385Z,3.25
2023-03-29T13:11:40.726Z,3.42
2023-03-29T13:18:49.882Z,3.20
2023-03-29T13:26:14.069Z,3.65
2023-03-29T13:33:57.220Z,2.92
2023-03-29T13:41:04.004Z,2.78
2023-03-29T13:48:25.088Z,3.30
2023-03-29T13:55:32.754Z,2.75
2023-03-29T14:03:06.689Z,3.17
2023-03-29T14:10:12.357Z,3.20
2023-03-29T14:17:21.456Z,3.10
2023-03-29T14:24:26.009Z,3.05
2023-03-29T14:31:32.959Z,3.45
2023-03-29T14:38:35.553Z,3.38
2023-03-29T14:45:37.658Z,3.30
2023-03-29T14:52:39.487Z,3.53
2023-03-29T14:59:42.580Z,3.58
2023-03-29T15:06:44.837Z,3.47
2023-03-29T15:13:46.565Z,4.00
2023-03-29T15:20:48.201Z,4.13
2023-03-29T15:27:51.615Z,3.58
2023-03-29T15:35:00.455Z,3.95
2023-03-29T15:42:02.022Z,4.30
2023-03-29T15:49:04.965Z,4.50
2023-03-29T15:56:07.981Z,4.50
2023-03-29T16:03:12.078Z,4.13
2023-03-29T16:10:13.614Z,4.55
2023-03-29T16:17:15.814Z,4.20
2023-03-29T16:24:22.010Z,4.70
2023-03-29T16:31:25.839Z,3.95
2023-03-29T16:38:29.178Z,4.45
2023-03-29T16:45:30.964Z,5.30
2023-03-29T16:52:32.731Z,4.80
2023-03-29T16:59:34.254Z,4.07
2023-03-29T17:06:35.838Z,4.45
2023-03-29T17:13:37.795Z,4.93
2023-03-29T17:20:39.881Z,5.22
2023-03-29T17:27:42.290Z,43.13
2023-03-29T17:34:43.828Z,4.80
2023-03-29T17:41:46.744Z,7.80
2023-03-29T17:48:50.845Z,32.80
2023-03-29T17:55:52.457Z,26.38
2023-03-29T18:02:54.137Z,17.65
2023-03-29T18:09:55.878Z,40.97
2023-03-29T18:16:57.615Z,54.33
2023-03-29T18:23:59.284Z,78.22
2023-03-29T18:31:00.884Z,62.63
2023-03-29T18:38:03.261Z,80.15
2023-03-29T18:45:05.487Z,21.40
2023-03-29T18:52:07.020Z,16.13
2023-03-29T18:59:08.582Z,6.00
2023-03-29T19:06:11.649Z,5.82
2023-03-29T19:13:13.234Z,5.93
2023-03-29T19:20:14.776Z,5.60
2023-03-29T19:27:16.519Z,5.25
2023-03-29T19:34:20.955Z,5.63
2023-03-29T19:41:22.465Z,5.43
2023-03-29T19:48:24.714Z,11.32
2023-03-29T19:55:27.105Z,6.30
2023-03-29T20:02:28.732Z,5.90
2023-03-29T20:09:30.764Z,7.00
2023-03-29T20:16:34.739Z,5.75
2023-03-29T20:23:36.582Z,6.25
2023-03-29T20:30:39.373Z,10.57
2023-03-29T20:37:41.006Z,4.70
2023-03-29T20:44:50.272Z,4.88
2023-03-29T20:51:58.445Z,5.22
2023-03-29T20:59:00.092Z,4.43
2023-03-29T21:06:02.259Z,5.40
2023-03-29T21:13:03.854Z,5.15
2023-03-29T21:20:10.869Z,5.80
2023-03-29T21:27:12.393Z,5.35
2023-03-29T21:34:15.008Z,5.82
2023-03-29T21:41:16.642Z,5.03
2023-03-29T21:48:18.291Z,6.35
2023-03-29T21:55:19.862Z,5.50
2023-03-29T22:02:21.496Z,5.40
2023-03-29T22:09:25.950Z,5.38
2023-03-29T22:16:28.269Z,5.30
2023-03-29T22:23:30.046Z,5.30
2023-03-29T22:30:31.563Z,5.75
2023-03-29T22:37:33.107Z,5.45
2023-03-29T22:44:34.616Z,5.50
2023-03-29T22:51:36.342Z,4.72
2023-03-29T22:58:38.000Z,5.22
2023-03-29T23:05:39.575Z,5.45
2023-03-29T23:12:42.812Z,5.40
2023-03-29T23:19:44.394Z,5.22
2023-03-29T23:26:48.869Z,4.82
2023-03-29T23:33:50.607Z,5.25
2023-03-29T23:41:02.732Z,4.55
2023-03-29T23:48:04.774Z,5.03
2023-03-29T23:55:08.339Z,5.05
